Time;durP1;ratioP1;P1;durP2;ratioP2;P2;SDS_P1;SDS_P2;PMS_P1;PMS_P2;Temp;Humidity;BMP_temperature;BMP_pressure;BME280_temperature;BME280_humidity;BME280_pressure;Samples;Min_cycle;Max_cycle;Signal;HPM_P1;HPM_P2
2022/06/29 00:00:57;;;;;;;13.30;12.60;;;16.50;99.90;;;;;;5055725;28;20830;-66
2022/06/29 00:03:23;;;;;;;14.47;13.37;;;16.50;99.90;;;;;;5057832;28;20470;-67
2022/06/29 00:05:52;;;;;;;13.10;12.33;;;16.50;99.90;;;;;;5056358;28;20471;-66
2022/06/29 00:08:19;;;;;;;13.13;12.50;;;16.40;99.90;;;;;;5054398;28;20574;-66
2022/06/29 00:10:47;;;;;;;14.33;13.43;;;16.30;99.90;;;;;;5054927;28;20495;-66
2022/06/29 00:13:13;;;;;;;13.83;13.00;;;16.30;99.90;;;;;;5052218;28;20683;-66
2022/06/29 00:15:40;;;;;;;14.53;13.37;;;16.20;99.90;;;;;;5058380;28;20463;-66
2022/06/29 00:18:11;;;;;;;12.40;11.70;;;16.30;99.90;;;;;;5055379;28;20459;-66
2022/06/29 00:20:38;;;;;;;12.67;11.90;;;16.30;99.90;;;;;;5056626;28;20464;-67
2022/06/29 00:23:06;;;;;;;13.10;11.77;;;16.10;99.90;;;;;;5053990;28;20490;-67
2022/06/29 00:25:33;;;;;;;12.10;11.40;;;15.90;99.90;;;;;;5048638;28;20515;-66
2022/06/29 00:28:00;;;;;;;12.57;11.90;;;15.80;99.90;;;;;;5048442;28;20460;-67
2022/06/29 00:30:28;;;;;;;12.80;12.00;;;15.70;99.90;;;;;;5060148;28;20839;-67
2022/06/29 00:32:55;;;;;;;13.07;12.00;;;15.70;99.90;;;;;;5056131;28;20985;-67
2022/06/29 00:35:23;;;;;;;12.27;11.47;;;15.60;99.90;;;;;;5056971;28;20950;-67
2022/06/29 00:37:51;;;;;;;12.90;11.73;;;15.60;99.90;;;;;;5055106;28;20479;-67
2022/06/29 00:40:17;;;;;;;12.67;10.70;;;15.60;99.90;;;;;;5048664;28;20498;-67
2022/06/29 00:42:44;;;;;;;12.13;11.40;;;15.30;99.90;;;;;;5057537;28;20476;-66
2022/06/29 00:45:11;;;;;;;12.30;11.50;;;15.20;99.90;;;;;;5057766;28;20495;-66
2022/06/29 00:47:38;;;;;;;14.10;11.03;;;15.10;99.90;;;;;;5055432;28;20965;-66
2022/06/29 00:50:06;;;;;;;11.83;11.03;;;14.90;99.90;;;;;;5054248;28;20475;-66
2022/06/29 00:52:40;;;;;;;11.63;10.87;;;14.80;99.90;;;;;;5054073;28;20462;-66
2022/06/29 00:55:10;;;;;;;11.67;10.97;;;14.70;99.90;;;;;;5063508;28;20505;-66
2022/06/29 00:57:41;;;;;;;11.40;10.60;;;14.80;99.90;;;;;;5053978;28;20566;-66
2022/06/29 01:00:09;;;;;;;11.70;10.63;;;14.70;99.90;;;;;;5053632;28;20958;-67
2022/06/29 01:02:36;;;;;;;10.50;9.60;;;14.70;99.90;;;;;;5049746;28;20496;-66
2022/06/29 01:05:05;;;;;;;11.47;10.70;;;14.70;99.90;;;;;;5047476;28;20467;-66
2022/06/29 01:07:35;;;;;;;11.30;10.40;;;14.60;99.90;;;;;;5048006;28;20662;-66
2022/06/29 01:10:02;;;;;;;11.60;10.90;;;14.50;99.90;;;;;;5065843;28;20846;-67
2022/06/29 01:12:29;;;;;;;10.63;10.03;;;14.50;99.90;;;;;;5057486;28;20995;-66
2022/06/29 01:14:57;;;;;;;10.63;10.03;;;14.60;99.90;;;;;;5053246;28;20467;-66
2022/06/29 01:17:24;;;;;;;11.07;10.30;;;14.50;99.90;;;;;;5061682;28;20463;-68
2022/06/29 01:19:52;;;;;;;11.07;10.40;;;14.50;99.90;;;;;;5050155;28;20451;-68
2022/06/29 01:22:23;;;;;;;9.57;9.07;;;14.50;99.90;;;;;;5055499;28;20459;-68
2022/06/29 01:24:51;;;;;;;10.57;9.97;;;14.50;99.90;;;;;;5057354;28;20577;-68
2022/06/29 01:27:20;;;;;;;10.77;10.03;;;14.50;99.90;;;;;;5054954;28;20459;-68
2022/06/29 01:29:47;;;;;;;11.50;10.63;;;14.40;99.90;;;;;;5054097;28;20633;-69
2022/06/29 01:32:14;;;;;;;11.43;10.60;;;14.30;99.90;;;;;;5053906;28;20823;-68
2022/06/29 01:34:42;;;;;;;11.37;10.37;;;14.20;99.90;;;;;;5051970;28;20958;-68
2022/06/29 01:37:10;;;;;;;11.37;10.67;;;14.20;99.90;;;;;;5055539;28;20468;-68
2022/06/29 01:39:40;;;;;;;12.00;10.87;;;14.10;99.90;;;;;;5052979;28;20460;-68
2022/06/29 01:42:08;;;;;;;10.80;10.20;;;14.10;99.90;;;;;;5053365;28;20464;-69
2022/06/29 01:44:36;;;;;;;11.97;11.10;;;14.10;99.90;;;;;;5052092;28;20874;-69
2022/06/29 01:47:04;;;;;;;11.07;10.43;;;14.00;99.90;;;;;;5061360;28;20998;-68
2022/06/29 01:49:32;;;;;;;11.30;10.60;;;14.00;99.90;;;;;;5053605;28;20464;-68
2022/06/29 01:51:59;;;;;;;12.10;11.30;;;14.00;99.90;;;;;;5051316;28;21158;-68
2022/06/29 01:54:26;;;;;;;11.17;10.57;;;13.90;99.90;;;;;;5047695;28;20966;-68
2022/06/29 01:56:57;;;;;;;10.83;10.27;;;13.90;99.90;;;;;;5051335;28;20466;-68
2022/06/29 01:59:24;;;;;;;12.30;11.20;;;13.90;99.90;;;;;;5051373;28;20475;-68
2022/06/29 02:01:51;;;;;;;11.63;10.93;;;13.80;99.90;;;;;;5055277;28;20458;-68
2022/06/29 02:04:18;;;;;;;12.27;11.40;;;13.80;99.90;;;;;;5056517;28;20487;-68
2022/06/29 02:06:46;;;;;;;12.57;11.70;;;13.70;99.90;;;;;;5059227;28;20478;-67
2022/06/29 02:09:15;;;;;;;11.93;11.13;;;13.60;99.90;;;;;;5052721;28;20513;-68
2022/06/29 02:11:42;;;;;;;12.93;11.80;;;13.60;99.90;;;;;;5052023;28;20517;-68
2022/06/29 02:14:13;;;;;;;13.73;12.47;;;13.50;99.90;;;;;;5055999;28;20501;-69
2022/06/29 02:16:40;;;;;;;13.00;12.30;;;13.40;99.90;;;;;;5056880;28;20797;-68
2022/06/29 02:19:09;;;;;;;15.73;11.90;;;13.40;99.90;;;;;;5059391;28;20459;-67
2022/06/29 02:21:35;;;;;;;11.67;11.03;;;13.30;99.90;;;;;;5060822;28;20463;-68
2022/06/29 02:24:03;;;;;;;12.20;11.40;;;13.30;99.90;;;;;;5056080;28;21004;-68
2022/06/29 02:26:30;;;;;;;12.00;11.20;;;13.20;99.90;;;;;;5052266;28;20479;-67
2022/06/29 02:28:57;;;;;;;12.33;11.43;;;13.30;99.90;;;;;;5053107;28;20463;-67
2022/06/29 02:36:57;;;;;;;12.33;11.53;;;13.20;99.90;;;;;;5058134;28;20521;-67
2022/06/29 02:39:24;;;;;;;12.57;11.70;;;13.20;99.90;;;;;;5060517;28;20551;-66
2022/06/29 02:41:52;;;;;;;12.10;11.40;;;13.20;99.90;;;;;;5056572;28;20479;-67
2022/06/29 02:44:19;;;;;;;12.33;11.43;;;13.10;99.90;;;;;;5051747;28;20483;-66
2022/06/29 02:46:47;;;;;;;13.00;12.30;;;13.10;99.90;;;;;;5058700;28;21009;-67
2022/06/29 02:49:15;;;;;;;12.37;11.67;;;13.10;99.90;;;;;;5056756;28;20463;-67
2022/06/29 02:51:41;;;;;;;12.17;11.10;;;13.10;99.90;;;;;;5050983;28;20930;-67
2022/06/29 02:54:09;;;;;;;12.23;11.27;;;13.10;99.90;;;;;;5062793;28;20967;-66
2022/06/29 02:56:36;;;;;;;12.23;11.23;;;13.10;99.90;;;;;;5058574;28;20464;-67
2022/06/29 02:59:03;;;;;;;12.77;11.97;;;13.10;99.90;;;;;;5050142;28;20466;-67
2022/06/29 03:01:30;;;;;;;13.47;12.07;;;13.10;99.90;;;;;;5054061;28;20466;-67
2022/06/29 03:03:59;;;;;;;12.70;11.63;;;13.10;99.90;;;;;;5054279;28;20488;-67
2022/06/29 03:06:26;;;;;;;12.93;11.97;;;13.00;99.90;;;;;;5048785;28;20474;-66
2022/06/29 03:08:53;;;;;;;13.03;12.30;;;12.90;99.90;;;;;;5055880;28;20549;-66
2022/06/29 03:11:19;;;;;;;13.37;12.47;;;12.90;99.90;;;;;;5063605;28;20467;-67
2022/06/29 03:13:50;;;;;;;12.60;11.93;;;12.90;99.90;;;;;;5056914;28;20467;-66
2022/06/29 03:16:17;;;;;;;12.70;12.00;;;12.90;99.90;;;;;;5058250;28;20459;-66
2022/06/29 03:18:44;;;;;;;13.00;12.20;;;12.90;99.90;;;;;;5057890;28;20456;-67
2022/06/29 03:21:12;;;;;;;13.63;12.83;;;12.90;99.90;;;;;;5058933;28;20479;-66
2022/06/29 03:23:39;;;;;;;12.83;12.13;;;12.80;99.90;;;;;;5058126;28;20484;-66
2022/06/29 03:26:06;;;;;;;12.80;12.03;;;12.80;99.90;;;;;;5057083;28;20479;-66
2022/06/29 03:28:33;;;;;;;13.70;12.90;;;12.80;99.90;;;;;;5056355;28;20478;-67
2022/06/29 03:31:00;;;;;;;14.60;13.80;;;12.70;99.90;;;;;;5052699;28;20479;-67
2022/06/29 03:33:28;;;;;;;14.70;13.70;;;12.70;99.90;;;;;;5063657;28;20466;-66
2022/06/29 03:35:55;;;;;;;15.10;14.00;;;12.60;99.90;;;;;;5055871;28;20464;-66
2022/06/29 03:38:24;;;;;;;14.73;13.53;;;12.60;99.90;;;;;;5054553;28;20462;-66
2022/06/29 03:40:52;;;;;;;14.13;12.70;;;12.60;99.90;;;;;;5051187;28;20463;-66
2022/06/29 03:43:19;;;;;;;14.97;13.87;;;12.50;99.90;;;;;;5057853;28;20464;-66
2022/06/29 03:45:46;;;;;;;13.37;12.67;;;12.60;99.90;;;;;;5059754;28;20495;-65
2022/06/29 03:48:15;;;;;;;15.30;14.00;;;12.60;99.90;;;;;;5054720;28;20462;-66
2022/06/29 03:50:41;;;;;;;14.90;14.00;;;12.60;99.90;;;;;;5055812;28;20773;-67
2022/06/29 03:53:08;;;;;;;14.00;13.10;;;12.70;99.90;;;;;;5054644;28;20470;-67
2022/06/29 03:55:37;;;;;;;13.60;12.70;;;12.80;99.90;;;;;;5053880;28;20466;-66
2022/06/29 03:58:04;;;;;;;13.20;12.33;;;12.80;99.90;;;;;;5056470;28;20547;-66
2022/06/29 04:00:31;;;;;;;14.57;13.20;;;12.80;99.90;;;;;;5056324;28;20460;-67
2022/06/29 04:02:58;;;;;;;13.00;12.10;;;12.80;99.90;;;;;;5036480;28;21025;-67
2022/06/29 04:05:25;;;;;;;13.90;12.70;;;12.80;99.90;;;;;;5030230;28;20601;-66
2022/06/29 04:07:51;;;;;;;20.57;12.60;;;12.90;99.90;;;;;;5027977;28;21624;-67
2022/06/29 04:10:18;;;;;;;14.13;12.87;;;12.90;99.90;;;;;;5029376;28;20492;-67
2022/06/29 04:12:47;;;;;;;14.10;13.07;;;12.90;99.90;;;;;;5028403;28;20464;-66
2022/06/29 04:15:13;;;;;;;14.93;13.57;;;13.00;99.90;;;;;;5029154;28;20475;-67
2022/06/29 04:17:41;;;;;;;15.03;13.80;;;13.10;99.90;;;;;;5028812;28;20459;-66
2022/06/29 04:20:08;;;;;;;16.93;13.07;;;13.10;99.90;;;;;;5028541;28;21299;-66
2022/06/29 04:22:35;;;;;;;14.10;13.00;;;13.20;99.90;;;;;;5027011;28;20444;-66
2022/06/29 04:25:02;;;;;;;14.50;13.10;;;13.30;99.90;;;;;;5028038;28;20506;-67
2022/06/29 04:27:29;;;;;;;13.80;12.67;;;13.50;99.90;;;;;;5028313;28;20468;-67
2022/06/29 04:29:57;;;;;;;13.90;11.93;;;13.60;99.90;;;;;;5027680;28;20803;-66
2022/06/29 04:32:24;;;;;;;15.10;13.63;;;13.70;99.90;;;;;;5028078;28;20476;-67
2022/06/29 04:34:51;;;;;;;13.33;12.43;;;13.80;99.90;;;;;;5028232;28;20485;-66
2022/06/29 04:37:18;;;;;;;13.57;12.57;;;13.90;99.90;;;;;;5029355;28;20501;-67
2022/06/29 04:39:44;;;;;;;12.20;11.40;;;14.00;99.90;;;;;;5028913;28;20996;-66
2022/06/29 04:42:11;;;;;;;12.73;11.60;;;14.20;99.90;;;;;;5029687;28;20821;-66
2022/06/29 04:44:38;;;;;;;11.07;10.50;;;14.40;99.90;;;;;;5027940;28;20478;-67
2022/06/29 04:47:06;;;;;;;11.40;10.40;;;14.60;99.90;;;;;;5030008;28;20934;-67
2022/06/29 04:49:33;;;;;;;12.27;10.10;;;14.80;99.90;;;;;;5028796;28;20474;-67
2022/06/29 04:52:00;;;;;;;14.30;10.70;;;15.10;99.90;;;;;;5028003;28;20480;-66
2022/06/29 04:54:27;;;;;;;10.93;9.57;;;15.40;99.90;;;;;;5029317;28;20653;-66
2022/06/29 04:56:53;;;;;;;16.27;10.47;;;15.80;99.90;;;;;;5030114;28;22196;-67
2022/06/29 04:59:20;;;;;;;11.47;10.47;;;16.10;99.90;;;;;;5028751;28;20510;-67
2022/06/29 05:01:48;;;;;;;31.23;10.53;;;16.40;99.90;;;;;;5027517;28;20463;-67
2022/06/29 05:04:16;;;;;;;40.33;12.30;;;16.80;99.90;;;;;;5028154;28;20502;-67
2022/06/29 05:06:43;;;;;;;44.40;12.60;;;17.10;99.90;;;;;;5028138;28;20448;-67
2022/06/29 05:09:10;;;;;;;12.80;9.67;;;17.50;99.90;;;;;;5028412;28;20502;-67
2022/06/29 05:11:37;;;;;;;13.80;10.20;;;17.80;99.90;;;;;;5027866;28;20462;-66
2022/06/29 05:14:03;;;;;;;17.33;10.93;;;18.00;99.90;;;;;;5029383;28;20464;-67
2022/06/29 05:16:30;;;;;;;24.30;11.03;;;18.20;99.90;;;;;;5027316;28;20973;-67
2022/06/29 05:18:57;;;;;;;21.80;11.60;;;18.20;99.90;;;;;;5027305;28;20460;-67
2022/06/29 05:21:26;;;;;;;29.23;12.07;;;18.20;99.90;;;;;;5029667;28;20517;-68
2022/06/29 05:23:53;;;;;;;29.33;12.80;;;18.30;99.90;;;;;;5026728;28;20451;-67
2022/06/29 05:26:20;;;;;;;27.63;12.57;;;18.20;99.90;;;;;;5027704;28;20514;-66
2022/06/29 05:28:47;;;;;;;29.70;14.00;;;18.50;99.90;;;;;;5027428;28;20466;-66
2022/06/29 05:31:14;;;;;;;34.27;14.27;;;18.70;99.90;;;;;;5027755;28;20501;-68
2022/06/29 05:33:41;;;;;;;22.00;14.47;;;19.00;99.90;;;;;;5028930;28;20456;-68
2022/06/29 05:36:09;;;;;;;38.07;16.23;;;19.30;99.90;;;;;;5030433;28;20498;-68
2022/06/29 05:38:38;;;;;;;20.63;14.97;;;19.40;99.90;;;;;;5031372;28;20521;-68
2022/06/29 05:41:06;;;;;;;31.03;16.27;;;19.70;99.90;;;;;;5032785;28;20843;-68
2022/06/29 05:43:33;;;;;;;27.20;16.10;;;19.80;99.90;;;;;;5031958;28;20471;-67
2022/06/29 05:46:00;;;;;;;28.87;15.77;;;20.10;99.90;;;;;;5033206;28;20482;-68
2022/06/29 05:48:27;;;;;;;25.53;16.43;;;20.30;99.90;;;;;;5033643;28;20517;-67
2022/06/29 05:50:54;;;;;;;39.97;16.73;;;20.50;99.90;;;;;;5052961;28;20467;-67
2022/06/29 05:53:21;;;;;;;32.57;16.33;;;20.60;99.90;;;;;;5059445;28;20949;-67
2022/06/29 05:55:50;;;;;;;29.73;17.77;;;20.80;99.90;;;;;;5037378;28;20466;-67
2022/06/29 05:58:19;;;;;;;31.50;17.70;;;20.90;99.90;;;;;;5053428;28;20459;-67
2022/06/29 06:00:46;;;;;;;33.30;16.30;;;21.00;99.90;;;;;;5050213;28;20950;-67
2022/06/29 06:03:13;;;;;;;37.63;18.97;;;21.20;99.90;;;;;;5030225;28;20502;-67
2022/06/29 06:05:40;;;;;;;37.07;17.77;;;21.40;99.90;;;;;;5030311;28;20488;-68
2022/06/29 06:08:07;;;;;;;66.67;19.70;;;21.60;99.90;;;;;;5030266;28;20468;-68
2022/06/29 06:10:34;;;;;;;45.13;17.97;;;21.70;99.90;;;;;;5030421;28;20472;-68
2022/06/29 06:13:05;;;;;;;41.30;17.67;;;21.90;99.90;;;;;;5033819;28;20466;-67
2022/06/29 06:15:32;;;;;;;44.20;18.23;;;22.10;99.90;;;;;;5056647;28;20476;-67
2022/06/29 06:17:59;;;;;;;43.10;18.30;;;22.10;99.90;;;;;;5053529;28;20463;-67
2022/06/29 06:20:26;;;;;;;45.10;18.97;;;22.30;99.90;;;;;;5037669;28;20899;-67
2022/06/29 06:22:52;;;;;;;31.33;16.93;;;22.30;99.90;;;;;;5030043;28;20505;-67
2022/06/29 06:25:19;;;;;;;38.53;17.90;;;22.20;99.90;;;;;;5029381;28;21179;-68
2022/06/29 06:27:46;;;;;;;45.83;19.80;;;22.50;99.90;;;;;;5029382;28;20451;-67
2022/06/29 06:30:14;;;;;;;46.37;18.50;;;22.80;99.90;;;;;;5030234;28;20529;-68
2022/06/29 06:32:41;;;;;;;43.07;18.63;;;23.10;99.90;;;;;;5029482;28;21011;-67
2022/06/29 06:35:09;;;;;;;20.33;15.80;;;23.40;99.90;;;;;;5030618;28;20471;-67
2022/06/29 06:37:36;;;;;;;23.00;17.27;;;23.30;99.90;;;;;;5029025;28;20459;-68
2022/06/29 06:42:48;;;;;;;19.27;16.67;;;23.20;99.90;;;;;;5029688;28;20715;-68
2022/06/29 06:45:16;;;;;;;27.77;16.43;;;23.30;99.90;;;;;;5029100;28;20491;-67
2022/06/29 06:47:43;;;;;;;22.47;17.07;;;23.40;99.90;;;;;;5028178;28;21083;-68
2022/06/29 06:50:11;;;;;;;45.27;17.80;;;23.40;99.90;;;;;;5028570;28;20471;-68
2022/06/29 06:52:38;;;;;;;39.33;17.63;;;23.50;99.90;;;;;;5028302;28;20458;-66
2022/06/29 06:55:06;;;;;;;38.77;18.37;;;23.50;99.90;;;;;;5029924;28;20488;-67
2022/06/29 06:57:33;;;;;;;40.80;17.57;;;23.30;99.90;;;;;;5029635;28;20451;-67
2022/06/29 06:59:59;;;;;;;45.47;18.80;;;23.20;99.90;;;;;;5028389;28;22510;-68
2022/06/29 07:02:28;;;;;;;34.13;17.40;;;23.10;99.90;;;;;;5027983;28;20836;-67
2022/06/29 07:04:55;;;;;;;41.57;17.37;;;23.20;99.90;;;;;;5028454;28;21149;-67
2022/06/29 07:07:22;;;;;;;27.00;17.93;;;23.10;99.90;;;;;;5029027;28;20451;-68
2022/06/29 07:09:49;;;;;;;32.30;17.90;;;23.20;99.90;;;;;;5027739;28;20586;-67
2022/06/29 07:12:15;;;;;;;38.80;16.73;;;23.40;99.90;;;;;;5028168;28;20661;-67
2022/06/29 07:14:42;;;;;;;36.27;17.50;;;23.40;99.90;;;;;;5027834;28;21024;-68
2022/06/29 07:17:09;;;;;;;28.73;17.33;;;23.50;99.90;;;;;;5029602;28;20463;-68
2022/06/29 07:19:37;;;;;;;27.30;17.03;;;23.40;99.90;;;;;;5028418;28;20460;-68
2022/06/29 07:22:05;;;;;;;30.03;17.40;;;23.60;99.90;;;;;;5028880;28;20451;-68
2022/06/29 07:24:32;;;;;;;58.37;19.93;;;23.80;99.90;;;;;;5029017;28;20471;-67
2022/06/29 07:26:59;;;;;;;33.07;18.17;;;24.00;99.90;;;;;;5029273;28;20471;-67
2022/06/29 07:29:26;;;;;;;46.50;17.70;;;23.90;99.90;;;;;;5028929;28;20503;-67
2022/06/29 07:31:53;;;;;;;28.23;17.17;;;23.90;99.90;;;;;;5027970;28;20471;-67
2022/06/29 07:34:20;;;;;;;24.90;17.17;;;23.90;99.90;;;;;;5028313;28;20544;-68
2022/06/29 07:36:48;;;;;;;23.50;18.17;;;24.10;99.90;;;;;;5028355;28;20864;-68
2022/06/29 07:39:15;;;;;;;20.80;16.20;;;24.50;99.90;;;;;;5029199;28;20464;-67
2022/06/29 07:41:43;;;;;;;31.03;17.83;;;24.40;99.90;;;;;;5028444;28;20467;-67
2022/06/29 07:44:09;;;;;;;24.30;16.43;;;24.60;99.90;;;;;;5027864;28;20916;-68
2022/06/29 07:46:36;;;;;;;23.13;16.57;;;24.70;99.90;;;;;;5028270;28;20583;-68
2022/06/29 07:49:03;;;;;;;19.67;16.90;;;24.80;99.90;;;;;;5028511;28;20463;-68
2022/06/29 07:51:30;;;;;;;20.83;17.30;;;24.90;99.90;;;;;;5029347;28;21048;-68
2022/06/29 07:53:58;;;;;;;18.27;16.53;;;24.90;99.90;;;;;;5028735;28;20467;-67
2022/06/29 07:56:25;;;;;;;21.60;17.13;;;24.90;99.90;;;;;;5028654;28;22376;-68
2022/06/29 07:58:53;;;;;;;20.63;17.07;;;25.00;99.90;;;;;;5028236;28;20811;-67
2022/06/29 08:01:19;;;;;;;19.40;17.80;;;24.90;99.90;;;;;;5028520;28;20472;-68
2022/06/29 08:03:47;;;;;;;21.23;16.50;;;24.90;99.90;;;;;;5028225;28;21004;-67
2022/06/29 08:06:15;;;;;;;17.90;16.20;;;24.80;99.90;;;;;;5028546;28;20495;-67
2022/06/29 08:08:43;;;;;;;18.47;16.73;;;24.70;99.90;;;;;;5028227;28;20978;-67
2022/06/29 08:11:12;;;;;;;18.00;16.47;;;24.70;99.90;;;;;;5027841;28;20510;-68
2022/06/29 08:13:39;;;;;;;18.23;16.37;;;24.90;99.90;;;;;;5027561;28;20571;-67
2022/06/29 08:16:07;;;;;;;18.83;17.03;;;24.70;99.90;;;;;;5028351;28;20463;-68
2022/06/29 08:18:34;;;;;;;20.43;16.13;;;24.70;99.90;;;;;;5028672;28;20460;-67
2022/06/29 08:21:00;;;;;;;21.50;17.00;;;24.80;99.90;;;;;;5028622;28;20699;-67
2022/06/29 08:23:28;;;;;;;18.67;16.87;;;24.80;99.90;;;;;;5027165;28;20471;-67
2022/06/29 08:25:54;;;;;;;18.60;16.40;;;24.50;99.90;;;;;;5026882;28;20596;-68
2022/06/29 08:28:23;;;;;;;17.20;16.00;;;24.70;99.90;;;;;;5027895;28;21088;-68
2022/06/29 08:30:50;;;;;;;18.10;16.47;;;24.80;99.90;;;;;;5028014;28;20468;-67
2022/06/29 08:33:17;;;;;;;17.50;15.67;;;25.30;99.90;;;;;;5027294;28;21566;-68
2022/06/29 08:35:44;;;;;;;17.10;15.80;;;25.40;99.40;;;;;;5027460;28;20486;-67
2022/06/29 08:38:11;;;;;;;17.17;15.77;;;25.30;99.40;;;;;;5027413;28;20885;-69
2022/06/29 08:40:44;;;;;;;17.50;15.93;;;25.40;99.30;;;;;;5027595;28;20463;-67
2022/06/29 08:43:12;;;;;;;18.00;16.50;;;25.40;99.60;;;;;;5027956;28;20463;-69
2022/06/29 08:45:43;;;;;;;17.90;16.23;;;25.50;99.50;;;;;;5028148;28;20541;-67
2022/06/29 08:48:11;;;;;;;24.43;17.13;;;25.40;99.20;;;;;;5026681;28;20779;-67
2022/06/29 08:50:39;;;;;;;18.17;16.30;;;25.30;99.90;;;;;;5027182;28;20502;-67
2022/06/29 08:53:07;;;;;;;19.20;16.50;;;25.60;99.00;;;;;;5027124;28;20455;-67
2022/06/29 08:55:41;;;;;;;18.10;16.43;;;25.60;98.10;;;;;;5027489;28;20563;-67
2022/06/29 08:58:09;;;;;;;19.80;17.47;;;25.60;98.60;;;;;;5027558;28;20951;-68
2022/06/29 09:00:37;;;;;;;18.50;16.77;;;25.80;98.60;;;;;;5026797;28;20969;-67
2022/06/29 09:03:05;;;;;;;23.53;16.80;;;25.90;98.40;;;;;;5027088;28;20472;-67
2022/06/29 09:05:33;;;;;;;20.13;17.60;;;26.00;98.10;;;;;;5026605;28;20583;-68
2022/06/29 09:08:00;;;;;;;18.00;16.47;;;26.10;98.30;;;;;;5027586;28;20494;-67
2022/06/29 09:10:30;;;;;;;17.90;16.70;;;26.60;98.20;;;;;;5026924;28;20495;-67
2022/06/29 09:13:00;;;;;;;18.40;16.80;;;26.50;97.20;;;;;;5026416;28;20487;-68
2022/06/29 09:15:36;;;;;;;27.00;17.77;;;26.60;96.80;;;;;;5026781;28;20452;-67
2022/06/29 09:18:22;;;;;;;20.60;17.03;;;26.80;96.30;;;;;;5027879;28;20529;-68
2022/06/29 09:20:54;;;;;;;23.33;16.70;;;27.00;96.70;;;;;;5027368;28;20452;-67
2022/06/29 09:23:21;;;;;;;24.70;18.60;;;27.50;96.20;;;;;;5027458;28;20521;-68
2022/06/29 09:25:48;;;;;;;28.20;16.87;;;27.80;95.00;;;;;;5027137;28;20475;-67
2022/06/29 09:28:23;;;;;;;23.57;16.90;;;28.20;94.00;;;;;;5026663;28;20547;-67
2022/06/29 09:30:52;;;;;;;18.70;16.70;;;28.30;93.70;;;;;;5026540;28;20521;-68
2022/06/29 09:33:21;;;;;;;27.77;18.23;;;28.60;93.10;;;;;;5027316;28;20668;-68
2022/06/29 09:36:04;;;;;;;25.13;17.90;;;28.50;92.00;;;;;;5027266;28;20495;-68
2022/06/29 09:38:32;;;;;;;27.67;17.10;;;28.30;92.50;;;;;;5027431;28;20466;-68
2022/06/29 09:41:00;;;;;;;22.33;17.20;;;28.90;91.40;;;;;;5026581;28;21333;-69
2022/06/29 09:43:28;;;;;;;22.83;16.40;;;29.70;91.40;;;;;;5025953;28;20466;-68
2022/06/29 09:45:56;;;;;;;18.87;17.17;;;30.00;89.70;;;;;;5027264;28;20484;-67
2022/06/29 09:48:26;;;;;;;17.90;16.40;;;30.00;85.10;;;;;;5026852;28;20586;-68
2022/06/29 09:50:54;;;;;;;26.10;18.30;;;30.20;82.20;;;;;;5026784;28;20561;-68
2022/06/29 09:53:25;;;;;;;23.57;17.07;;;30.60;83.70;;;;;;5027054;28;20547;-69
2022/06/29 09:55:55;;;;;;;18.20;16.50;;;31.00;78.80;;;;;;5027074;28;20494;-68
2022/06/29 09:58:30;;;;;;;17.77;15.93;;;30.60;76.80;;;;;;5026686;28;20456;-67
2022/06/29 10:03:47;;;;;;;18.17;16.37;;;30.60;78.60;;;;;;5026532;28;21005;-69
2022/06/29 10:06:17;;;;;;;18.50;16.80;;;30.70;76.80;;;;;;5026726;28;20464;-67
2022/06/29 10:08:45;;;;;;;17.90;16.20;;;30.50;75.70;;;;;;5026611;28;20510;-68
2022/06/29 10:14:12;;;;;;;17.13;15.90;;;30.20;71.90;;;;;;5027603;28;20881;-68
2022/06/29 10:16:47;;;;;;;17.37;16.27;;;30.00;74.80;;;;;;5027134;28;20495;-68
2022/06/29 10:19:38;;;;;;;17.30;15.57;;;30.60;71.60;;;;;;5026931;28;23011;-68
2022/06/29 10:22:05;;;;;;;16.40;15.30;;;30.60;71.50;;;;;;5027574;28;20699;-67
2022/06/29 10:24:32;;;;;;;17.13;15.83;;;30.30;70.20;;;;;;5029597;28;20464;-68
2022/06/29 10:27:06;;;;;;;16.83;15.23;;;30.30;70.00;;;;;;5030024;28;20715;-68
2022/06/29 10:29:34;;;;;;;16.13;15.00;;;30.40;69.40;;;;;;5030289;28;20456;-67
2022/06/29 10:32:13;;;;;;;21.90;16.43;;;30.20;67.30;;;;;;5029502;28;20549;-68
2022/06/29 10:37:32;;;;;;;18.77;15.83;;;30.20;71.90;;;;;;5030013;28;20517;-68
2022/06/29 10:40:04;;;;;;;22.37;16.40;;;30.50;69.50;;;;;;5029273;28;20456;-68
2022/06/29 10:45:36;;;;;;;15.93;14.70;;;30.60;70.20;;;;;;5029834;28;20980;-68
2022/06/29 10:48:24;;;;;;;17.00;15.90;;;30.60;67.20;;;;;;5029986;28;20456;-68
2022/06/29 10:50:53;;;;;;;16.70;15.23;;;30.40;65.80;;;;;;5029542;28;20554;-69
2022/06/29 10:53:21;;;;;;;17.23;15.60;;;30.60;64.80;;;;;;5028935;28;22442;-69
2022/06/29 10:55:53;;;;;;;17.87;15.20;;;31.00;66.40;;;;;;5029002;28;20460;-68
2022/06/29 10:58:21;;;;;;;16.83;15.63;;;30.80;63.90;;;;;;5029662;28;20455;-69
2022/06/29 11:00:51;;;;;;;17.70;16.03;;;31.10;65.50;;;;;;5029890;28;20460;-68
2022/06/29 11:03:19;;;;;;;17.93;16.20;;;31.10;66.00;;;;;;5029882;28;20916;-69
2022/06/29 11:14:05;;;;;;;17.23;15.73;;;31.70;61.50;;;;;;5029358;28;20514;-69
2022/06/29 11:16:35;;;;;;;18.00;16.50;;;31.90;62.90;;;;;;5029164;28;20528;-69
2022/06/29 11:19:03;;;;;;;17.30;15.90;;;32.90;63.20;;;;;;5028935;28;20482;-69
2022/06/29 11:21:30;;;;;;;18.27;16.60;;;33.90;59.70;;;;;;5028356;28;20475;-69
2022/06/29 11:24:06;;;;;;;20.80;16.70;;;34.50;57.70;;;;;;5027483;28;21524;-68
2022/06/29 11:26:34;;;;;;;17.43;15.97;;;34.90;57.00;;;;;;5029437;28;20498;-68
2022/06/29 11:29:03;;;;;;;18.47;16.73;;;35.40;54.60;;;;;;5030045;28;20467;-69
2022/06/29 11:31:29;;;;;;;19.17;17.27;;;35.80;52.90;;;;;;5029445;28;21244;-68
2022/06/29 11:33:56;;;;;;;17.67;16.47;;;35.20;52.60;;;;;;5028407;28;20470;-69
2022/06/29 11:36:25;;;;;;;17.83;16.50;;;34.60;52.80;;;;;;5027736;28;20483;-68
2022/06/29 11:38:54;;;;;;;17.83;16.17;;;34.70;53.10;;;;;;5028848;28;20463;-71
2022/06/29 11:41:25;;;;;;;17.37;16.17;;;35.50;52.10;;;;;;5029165;28;21391;-69
2022/06/29 11:44:00;;;;;;;21.70;16.43;;;36.20;51.10;;;;;;5028857;28;20460;-69
2022/06/29 11:46:27;;;;;;;17.73;16.10;;;36.00;48.50;;;;;;5028546;28;20570;-69
2022/06/29 11:51:49;;;;;;;16.33;15.43;;;37.10;46.60;;;;;;5029172;28;20556;-70
2022/06/29 11:54:17;;;;;;;16.60;15.57;;;37.50;42.50;;;;;;5028681;28;20566;-69
2022/06/29 11:56:46;;;;;;;16.13;15.00;;;37.90;42.60;;;;;;5028926;28;20492;-69
2022/06/29 11:59:16;;;;;;;15.80;14.80;;;38.30;42.20;;;;;;5028305;28;20469;-68
2022/06/29 12:01:53;;;;;;;15.50;14.63;;;38.40;39.20;;;;;;5028760;28;20467;-69
2022/06/29 12:04:30;;;;;;;16.53;15.40;;;37.50;38.80;;;;;;5027276;28;20467;-69
2022/06/29 12:07:05;;;;;;;15.47;14.43;;;36.30;38.50;;;;;;5035689;28;20565;-68
2022/06/29 12:09:33;;;;;;;16.23;15.13;;;35.50;40.60;;;;;;5054769;28;20917;-69
2022/06/29 12:12:01;;;;;;;16.23;15.33;;;35.60;42.40;;;;;;5041354;28;20490;-69
2022/06/29 12:14:28;;;;;;;16.40;15.17;;;36.30;41.30;;;;;;5028641;28;20930;-69
2022/06/29 12:16:55;;;;;;;16.20;15.10;;;36.90;39.70;;;;;;5026263;28;20507;-69
2022/06/29 12:19:22;;;;;;;15.30;14.37;;;37.50;38.10;;;;;;5026682;28;20840;-69
2022/06/29 12:21:49;;;;;;;16.00;15.10;;;37.90;37.30;;;;;;5027456;28;20471;-69
2022/06/29 12:24:17;;;;;;;15.27;14.30;;;38.40;37.10;;;;;;5028011;28;20462;-69
2022/06/29 12:26:44;;;;;;;15.30;14.50;;;38.80;37.00;;;;;;5028190;28;21114;-69
2022/06/29 12:29:13;;;;;;;15.83;14.43;;;38.80;35.50;;;;;;5027521;28;20516;-69
2022/06/29 12:31:41;;;;;;;15.53;14.63;;;39.40;34.80;;;;;;5027964;28;20460;-70
2022/06/29 12:34:08;;;;;;;16.33;14.83;;;38.60;33.70;;;;;;5028050;28;20461;-70
2022/06/29 12:36:35;;;;;;;15.60;14.60;;;37.60;34.00;;;;;;5027486;28;20565;-69
2022/06/29 12:39:02;;;;;;;17.23;14.67;;;37.60;34.20;;;;;;5027453;28;20463;-69
2022/06/29 12:41:29;;;;;;;14.90;14.13;;;38.00;33.30;;;;;;5027957;28;20933;-69
2022/06/29 12:43:56;;;;;;;15.30;14.50;;;38.80;32.30;;;;;;5027362;28;20543;-69
2022/06/29 12:46:24;;;;;;;14.90;14.20;;;39.10;32.80;;;;;;5027917;28;20462;-69
2022/06/29 12:48:51;;;;;;;14.63;13.93;;;39.60;33.50;;;;;;5026254;28;20468;-70
2022/06/29 12:51:18;;;;;;;18.07;15.40;;;39.80;31.10;;;;;;5028086;28;20865;-70
2022/06/29 12:53:45;;;;;;;15.80;14.70;;;39.80;31.30;;;;;;5027493;28;21088;-69
2022/06/29 12:56:13;;;;;;;14.80;14.00;;;39.80;30.40;;;;;;5027620;28;20464;-69
2022/06/29 12:58:39;;;;;;;15.47;14.50;;;39.80;30.50;;;;;;5026690;28;20554;-69
2022/06/29 13:01:06;;;;;;;15.70;14.47;;;39.90;31.10;;;;;;5027092;28;20456;-69
2022/06/29 13:03:36;;;;;;;14.53;13.83;;;39.90;31.00;;;;;;5027112;28;20462;-69